createdAt,value
2023-01-02T00:02:10.211Z,4.44
2023-01-02T00:05:12.687Z,4.46
2023-01-02T00:08:16.916Z,4.40
2023-01-02T00:11:19.578Z,4.43
2023-01-02T00:14:22.057Z,4.57
2023-01-02T00:17:25.181Z,4.55
2023-01-02T00:20:27.995Z,4.68
2023-01-02T00:23:31.213Z,4.54
2023-01-02T00:26:33.606Z,4.40
2023-01-02T00:29:36.138Z,4.46
2023-01-02T00:32:38.623Z,4.52
2023-01-02T00:35:41.027Z,4.69
2023-01-02T00:38:43.489Z,4.77
2023-01-02T00:41:45.983Z,4.80
2023-01-02T00:44:48.411Z,4.84
2023-01-02T00:47:50.842Z,4.78
2023-01-02T00:50:55.415Z,4.72
2023-01-02T00:53:57.872Z,4.71
2023-01-02T00:57:00.316Z,4.56
2023-01-02T01:00:03.922Z,4.75
2023-01-02T01:03:06.843Z,4.81
2023-01-02T01:06:10.740Z,4.94
2023-01-02T01:09:13.685Z,5.16
2023-01-02T01:12:16.231Z,5.07
2023-01-02T01:15:18.711Z,4.84
2023-01-02T01:18:21.088Z,4.92
2023-01-02T01:21:23.692Z,5.05
2023-01-02T01:24:26.531Z,4.98
2023-01-02T01:27:29.034Z,4.99
2023-01-02T01:30:33.312Z,4.91
2023-01-02T01:33:36.085Z,4.99
2023-01-02T01:36:38.581Z,5.14
2023-01-02T01:39:41.027Z,5.27
2023-01-02T01:42:43.487Z,5.43
2023-01-02T01:45:46.056Z,5.57
2023-01-02T01:48:51.385Z,5.53
2023-01-02T01:51:57.871Z,5.28
2023-01-02T01:55:05.029Z,5.16
2023-01-02T01:58:22.514Z,5.19
2023-01-02T02:01:25.118Z,5.24
2023-01-02T02:04:27.734Z,5.21
2023-01-02T02:07:30.815Z,5.33
2023-01-02T02:10:33.281Z,5.33
2023-01-02T02:13:35.829Z,5.21
2023-01-02T02:17:02.384Z,5.14
2023-01-02T02:20:29.963Z,5.22
2023-01-02T02:23:43.717Z,5.17
2023-01-02T02:27:07.886Z,5.23
2023-01-02T02:30:24.808Z,5.00
2023-01-02T02:33:42.159Z,4.92
2023-01-02T02:36:55.061Z,5.03
2023-01-02T02:40:18.935Z,5.25
2023-01-02T02:43:58.696Z,5.23
2023-01-02T02:47:14.811Z,5.26
2023-01-02T02:50:23.476Z,5.35
2023-01-02T02:53:29.184Z,5.33
2023-01-02T02:56:31.759Z,5.37
2023-01-02T02:59:36.455Z,5.33
2023-01-02T03:02:39.077Z,5.39
2023-01-02T03:05:43.546Z,5.31
2023-01-02T03:09:26.302Z,5.44
2023-01-02T03:12:39.206Z,5.37
2023-01-02T03:15:49.231Z,5.40
2023-01-02T03:19:07.142Z,5.42
2023-01-02T03:22:17.377Z,5.53
2023-01-02T03:25:21.217Z,5.59
2023-01-02T03:28:26.485Z,5.65
2023-01-02T03:31:30.952Z,5.61
2023-01-02T03:34:34.651Z,5.52
2023-01-02T03:37:41.494Z,5.52
2023-01-02T03:40:47.395Z,5.50
2023-01-02T03:43:56.561Z,5.56
2023-01-02T03:47:29.786Z,5.40
2023-01-02T03:50:38.877Z,5.31
2023-01-02T03:53:41.622Z,4.98
2023-01-02T03:56:57.487Z,5.13
2023-01-02T04:00:10.739Z,5.08
2023-01-02T04:03:21.076Z,5.16
2023-01-02T04:06:30.934Z,5.09
2023-01-02T04:09:34.751Z,5.11
2023-01-02T04:12:38.883Z,5.01
2023-01-02T04:15:42.015Z,4.94
2023-01-02T04:18:49.078Z,4.99
2023-01-02T04:21:54.674Z,5.08
2023-01-02T04:25:03.575Z,5.13
2023-01-02T04:28:12.946Z,5.14
2023-01-02T04:31:16.687Z,5.36
2023-01-02T04:34:19.982Z,5.46
2023-01-02T04:37:29.726Z,5.69
2023-01-02T04:40:38.229Z,5.53
2023-01-02T04:43:40.810Z,5.59
2023-01-02T04:46:43.343Z,5.55
2023-01-02T04:49:45.753Z,5.46
2023-01-02T04:52:48.221Z,5.64
2023-01-02T04:55:56.793Z,5.63
2023-01-02T04:58:59.318Z,5.51
2023-01-02T05:02:02.213Z,5.68
2023-01-02T05:05:05.698Z,5.61
2023-01-02T05:08:13.864Z,5.56
2023-01-02T05:11:19.737Z,5.78
2023-01-02T05:14:22.153Z,5.80
2023-01-02T05:17:24.614Z,5.79
2023-01-02T05:20:28.984Z,5.85
2023-01-02T05:23:49.817Z,5.71
2023-01-02T05:26:52.377Z,5.84
2023-01-02T05:29:54.852Z,5.81
2023-01-02T05:32:57.249Z,5.82
2023-01-02T05:35:59.679Z,5.70
2023-01-02T05:39:02.128Z,5.96
2023-01-02T05:42:04.648Z,5.79
2023-01-02T05:45:07.753Z,5.84
2023-01-02T05:48:10.239Z,5.86
2023-01-02T05:51:14.828Z,5.87
2023-01-02T05:54:17.304Z,5.86
2023-01-02T05:57:19.693Z,5.89
2023-01-02T06:00:23.347Z,5.90
2023-01-02T06:03:25.981Z,5.81
2023-01-02T06:06:38.295Z,6.11
2023-01-02T06:09:41.718Z,5.86
2023-01-02T06:12:44.207Z,5.85
2023-01-02T06:15:46.619Z,5.91
2023-01-02T06:18:49.784Z,6.09
2023-01-02T06:21:52.276Z,6.12
2023-01-02T06:24:54.726Z,6.00
2023-01-02T06:27:57.149Z,6.11
2023-01-02T06:31:11.356Z,6.13
2023-01-02T06:34:13.814Z,6.14
2023-01-02T06:37:16.223Z,6.25
2023-01-02T06:40:18.672Z,6.10
2023-01-02T06:43:21.527Z,6.05
2023-01-02T06:46:24.301Z,6.17
2023-01-02T06:49:26.683Z,6.24
2023-01-02T06:52:29.311Z,6.22
2023-01-02T06:55:31.745Z,6.30
2023-01-02T06:58:35.664Z,6.39
2023-01-02T07:01:38.150Z,6.60
2023-01-02T07:04:40.649Z,6.56
2023-01-02T07:07:43.090Z,6.46
2023-01-02T07:10:50.981Z,6.53
2023-01-02T07:13:55.583Z,6.50
2023-01-02T07:16:58.082Z,6.47
2023-01-02T07:20:02.193Z,6.46
2023-01-02T07:23:05.038Z,6.53
2023-01-02T07:26:08.029Z,6.51
2023-01-02T07:29:10.471Z,6.64
2023-01-02T07:32:12.999Z,6.69
2023-01-02T07:35:15.974Z,6.70
2023-01-02T07:38:18.526Z,6.74
2023-01-02T07:41:24.018Z,6.86
2023-01-02T07:44:26.411Z,6.79
2023-01-02T07:47:28.831Z,6.80
2023-01-02T07:50:35.698Z,7.00
2023-01-02T07:53:38.900Z,7.10
2023-01-02T07:56:41.348Z,6.88
2023-01-02T07:59:47.154Z,6.88
2023-01-02T08:02:55.008Z,7.00
2023-01-02T08:06:11.479Z,6.99
2023-01-02T08:09:13.935Z,6.81
2023-01-02T08:12:16.395Z,7.02
2023-01-02T08:15:18.867Z,7.06
2023-01-02T08:18:21.300Z,7.12
2023-01-02T08:21:25.285Z,7.21
2023-01-02T08:24:27.705Z,7.17
2023-01-02T08:27:30.199Z,7.21
2023-01-02T08:30:32.818Z,7.22
2023-01-02T08:33:35.420Z,7.59
2023-01-02T08:36:37.783Z,7.65
2023-01-02T08:39:40.216Z,7.52
2023-01-02T08:42:43.253Z,7.70
2023-01-02T08:45:45.719Z,7.78
2023-01-02T08:48:48.206Z,7.55
2023-01-02T08:51:50.670Z,7.74
2023-01-02T08:54:53.081Z,7.82
2023-01-02T08:57:55.479Z,7.92
2023-01-02T09:00:57.960Z,8.03
2023-01-02T09:04:03.740Z,8.09
2023-01-02T09:07:08.790Z,8.30
2023-01-02T09:10:11.687Z,8.21
2023-01-02T09:13:15.434Z,8.24
2023-01-02T09:16:18.066Z,8.17
2023-01-02T09:19:20.627Z,8.29
2023-01-02T09:22:23.093Z,8.29
2023-01-02T09:25:25.536Z,8.31
2023-01-02T09:28:28.918Z,8.13
2023-01-02T09:31:31.434Z,8.10
2023-01-02T09:34:33.864Z,8.29
2023-01-02T09:37:38.631Z,8.23
2023-01-02T09:40:53.018Z,8.02
2023-01-02T09:44:13.211Z,8.06
2023-01-02T09:47:21.648Z,8.15
2023-01-02T09:50:29.688Z,8.09
2023-01-02T09:53:33.461Z,7.98
2023-01-02T09:56:40.683Z,8.10
2023-01-02T09:59:47.318Z,8.06
2023-01-02T10:03:11.449Z,8.03
2023-01-02T10:06:35.569Z,8.05
2023-01-02T10:09:48.412Z,8.07
2023-01-02T10:13:15.158Z,8.07
2023-01-02T10:16:21.700Z,8.00
2023-01-02T10:19:40.851Z,7.97
2023-01-02T10:22:49.289Z,7.98
2023-01-02T10:25:55.791Z,8.28
2023-01-02T10:29:25.619Z,8.09
2023-01-02T10:32:30.041Z,8.15
2023-01-02T10:35:40.484Z,8.04
2023-01-02T10:38:42.989Z,8.20
2023-01-02T10:41:50.105Z,8.07
2023-01-02T10:44:52.870Z,8.19
2023-01-02T10:47:55.328Z,8.24
2023-01-02T10:51:02.388Z,7.95
2023-01-02T10:54:09.409Z,8.22
2023-01-02T10:57:13.679Z,8.25
2023-01-02T11:00:23.895Z,8.11
2023-01-02T11:03:28.065Z,7.96
2023-01-02T11:06:39.240Z,8.04
2023-01-02T11:09:54.470Z,7.94
2023-01-02T11:13:02.515Z,8.05
2023-01-02T11:16:05.436Z,7.92
2023-01-02T11:19:20.435Z,8.06
2023-01-02T11:22:35.401Z,7.89
2023-01-02T11:25:42.326Z,8.06
2023-01-02T11:28:45.011Z,8.04
2023-01-02T11:31:57.289Z,7.98
2023-01-02T11:35:02.474Z,7.80
2023-01-02T11:38:05.135Z,7.72
2023-01-02T11:41:47.224Z,8.05
2023-01-02T11:44:52.832Z,7.89
2023-01-02T11:48:00.732Z,8.12
2023-01-02T11:51:03.152Z,8.08
2023-01-02T11:54:13.207Z,8.12
2023-01-02T11:57:44.850Z,8.32
2023-01-02T12:00:51.268Z,8.27
2023-01-02T12:03:54.136Z,8.42
2023-01-02T12:07:11.974Z,8.42
2023-01-02T12:10:48.000Z,8.39
2023-01-02T12:13:56.109Z,8.37
2023-01-02T12:17:12.096Z,8.34
2023-01-02T12:20:29.010Z,8.53
2023-01-02T12:23:43.471Z,8.65
2023-01-02T12:27:08.488Z,8.61
2023-01-02T12:30:19.429Z,8.57
2023-01-02T12:33:44.823Z,8.58
2023-01-02T12:37:11.906Z,8.53
2023-01-02T12:40:22.972Z,8.46
2023-01-02T12:43:53.343Z,8.43
2023-01-02T12:47:07.488Z,8.57
2023-01-02T12:50:41.645Z,8.56
2023-01-02T12:54:20.401Z,8.52
2023-01-02T12:57:31.395Z,8.41
2023-01-02T13:00:53.158Z,8.52
2023-01-02T13:04:01.279Z,8.58
2023-01-02T13:07:14.115Z,8.50
2023-01-02T13:10:19.909Z,8.45
2023-01-02T13:13:25.832Z,8.40
2023-01-02T13:16:28.496Z,8.36
2023-01-02T13:19:40.748Z,8.32
2023-01-02T13:23:20.458Z,8.29
2023-01-02T13:26:25.308Z,8.37
2023-01-02T13:29:30.239Z,8.33
2023-01-02T13:32:32.951Z,8.39
2023-01-02T13:35:37.704Z,8.35
2023-01-02T13:38:41.296Z,8.33
2023-01-02T13:42:10.703Z,8.26
2023-01-02T13:45:21.155Z,8.23
2023-01-02T13:48:40.778Z,8.22
2023-01-02T13:51:43.614Z,8.23
2023-01-02T13:55:31.056Z,8.34
2023-01-02T13:58:45.012Z,8.19
2023-01-02T14:02:18.018Z,8.21
2023-01-02T14:05:57.816Z,8.24
2023-01-02T14:09:07.358Z,8.23
2023-01-02T14:12:12.675Z,8.06
2023-01-02T14:15:20.583Z,8.17
2023-01-02T14:18:30.872Z,8.10
2023-01-02T14:21:36.175Z,8.15
2023-01-02T14:24:52.742Z,8.07
2023-01-02T14:27:58.389Z,8.22
2023-01-02T14:31:16.633Z,8.10
2023-01-02T14:34:24.007Z,8.08
2023-01-02T14:37:42.564Z,8.11
2023-01-02T14:40:46.186Z,8.10
2023-01-02T14:43:48.885Z,8.09
2023-01-02T14:46:51.624Z,7.87
2023-01-02T14:49:57.814Z,7.89
2023-01-02T14:53:06.647Z,7.88
2023-01-02T14:56:16.330Z,7.87
2023-01-02T14:59:40.759Z,7.86
2023-01-02T15:02:46.134Z,7.74
2023-01-02T15:05:56.672Z,7.80
2023-01-02T15:09:06.070Z,7.69
2023-01-02T15:12:47.876Z,7.78
2023-01-02T15:15:56.012Z,7.70
2023-01-02T15:18:59.352Z,7.64
2023-01-02T15:22:12.762Z,7.75
2023-01-02T15:25:30.137Z,7.70
2023-01-02T15:28:33.754Z,7.65
2023-01-02T15:31:39.279Z,7.68
2023-01-02T15:34:41.849Z,7.61
2023-01-02T15:37:46.028Z,7.43
2023-01-02T15:40:48.885Z,7.27
2023-01-02T15:44:12.618Z,7.56
2023-01-02T15:47:15.528Z,7.55
2023-01-02T15:50:29.248Z,7.48
2023-01-02T15:53:32.948Z,7.44
2023-01-02T15:56:37.893Z,7.27
2023-01-02T15:59:40.862Z,7.44
2023-01-02T16:02:44.611Z,7.37
2023-01-02T16:05:51.658Z,7.34
2023-01-02T16:08:56.025Z,7.16
2023-01-02T16:12:01.619Z,7.15
2023-01-02T16:15:04.594Z,7.23
2023-01-02T16:18:10.828Z,7.25
2023-01-02T16:21:14.503Z,7.20
2023-01-02T16:24:19.122Z,7.21
2023-01-02T16:27:28.220Z,7.27
2023-01-02T16:30:41.180Z,7.14
2023-01-02T16:33:45.748Z,7.14
2023-01-02T16:36:48.262Z,7.10
2023-01-02T16:39:51.003Z,7.11
2023-01-02T16:43:03.217Z,7.09
2023-01-02T16:46:09.968Z,7.26
2023-01-02T16:49:17.009Z,7.15
2023-01-02T16:52:19.597Z,7.27
2023-01-02T16:55:23.544Z,7.22
2023-01-02T16:58:26.208Z,7.21
2023-01-02T17:01:29.627Z,7.15
2023-01-02T17:04:32.351Z,7.07
2023-01-02T17:07:34.750Z,7.15
2023-01-02T17:10:42.097Z,7.10
2023-01-02T17:13:44.761Z,7.17
2023-01-02T17:16:47.265Z,7.25
2023-01-02T17:19:49.707Z,7.09
2023-01-02T17:22:52.227Z,7.18
2023-01-02T17:25:54.628Z,7.11
2023-01-02T17:28:57.074Z,7.23
2023-01-02T17:31:59.512Z,7.22
2023-01-02T17:35:03.148Z,7.20
2023-01-02T17:38:05.667Z,7.14
2023-01-02T17:41:08.943Z,7.23
2023-01-02T17:44:11.346Z,7.39
2023-01-02T17:47:57.310Z,7.38
2023-01-02T17:50:36.762Z,7.35
2023-01-02T17:53:42.372Z,7.37
2023-01-02T17:56:44.867Z,7.39
2023-01-02T17:59:47.852Z,7.40
2023-01-02T18:02:52.163Z,7.36
2023-01-02T18:05:54.809Z,7.34
2023-01-02T18:08:57.574Z,7.29
2023-01-02T18:12:00.206Z,7.25
2023-01-02T18:15:10.441Z,7.60
2023-01-02T18:18:14.720Z,7.38
2023-01-02T18:21:20.413Z,7.47
2023-01-02T18:24:27.387Z,7.43
2023-01-02T18:27:32.698Z,7.45
2023-01-02T18:30:35.624Z,7.50
2023-01-02T18:33:38.150Z,7.51
2023-01-02T18:36:41.098Z,7.30
2023-01-02T18:39:43.554Z,7.28
2023-01-02T18:42:49.191Z,7.41
2023-01-02T18:45:54.684Z,7.64
2023-01-02T18:48:57.200Z,7.63
2023-01-02T18:52:25.187Z,7.60
2023-01-02T18:55:34.125Z,7.51
2023-01-02T18:58:51.413Z,7.50
2023-01-02T19:01:55.419Z,7.35
2023-01-02T19:04:59.268Z,7.44
2023-01-02T19:08:31.412Z,7.57
2023-01-02T19:11:52.813Z,7.47
2023-01-02T19:14:55.276Z,7.47
2023-01-02T19:18:06.270Z,7.48
2023-01-02T19:21:08.785Z,7.67
2023-01-02T19:24:19.999Z,7.58
2023-01-02T19:27:36.882Z,7.55
2023-01-02T19:30:40.698Z,7.69
2023-01-02T19:33:59.904Z,7.47
2023-01-02T19:37:11.430Z,7.46
2023-01-02T19:40:19.996Z,7.42
2023-01-02T19:43:22.874Z,7.54
2023-01-02T19:46:25.392Z,7.54
2023-01-02T19:49:27.952Z,7.57
2023-01-02T19:52:30.958Z,7.48
2023-01-02T19:55:36.567Z,7.40
2023-01-02T19:58:39.429Z,7.42
2023-01-02T20:01:41.997Z,7.48
2023-01-02T20:04:45.155Z,7.44
2023-01-02T20:07:48.192Z,7.42
2023-01-02T20:10:51.132Z,7.41
2023-01-02T20:13:54.092Z,7.21
2023-01-02T20:16:56.844Z,7.42
2023-01-02T20:19:59.424Z,7.35
2023-01-02T20:23:01.837Z,7.39
2023-01-02T20:26:05.107Z,7.42
2023-01-02T20:29:07.597Z,7.45
2023-01-02T20:32:10.366Z,7.52
2023-01-02T20:35:13.658Z,7.41
2023-01-02T20:38:16.436Z,7.34
2023-01-02T20:41:19.058Z,7.24
2023-01-02T20:44:22.191Z,7.08
2023-01-02T20:47:24.979Z,7.00
2023-01-02T20:50:28.363Z,6.95
2023-01-02T20:53:31.099Z,7.00
2023-01-02T20:56:34.691Z,7.07
2023-01-02T20:59:38.340Z,7.36
2023-01-02T21:02:41.750Z,7.34
2023-01-02T21:05:44.377Z,7.32
2023-01-02T21:08:46.945Z,7.22
2023-01-02T21:11:49.460Z,7.17
2023-01-02T21:14:51.896Z,7.15
2023-01-02T21:17:54.428Z,7.16
2023-01-02T21:21:00.933Z,7.25
2023-01-02T21:24:04.973Z,7.10
2023-01-02T21:27:12.783Z,7.20
2023-01-02T21:30:17.612Z,7.14
2023-01-02T21:33:22.169Z,7.03
2023-01-02T21:36:24.668Z,7.08
2023-01-02T21:39:27.840Z,6.99
2023-01-02T21:42:30.329Z,7.00
2023-01-02T21:45:32.714Z,6.94
2023-01-02T21:48:35.161Z,7.01
2023-01-02T21:51:38.279Z,6.97
2023-01-02T21:54:40.743Z,6.95
2023-01-02T22:01:12.765Z,7.14
2023-01-02T22:04:15.367Z,7.10
2023-01-02T22:07:35.915Z,7.06
2023-01-02T22:10:43.108Z,6.98
2023-01-02T22:13:45.691Z,6.87
2023-01-02T22:16:48.146Z,6.90
2023-01-02T22:19:50.574Z,6.92
2023-01-02T22:22:53.167Z,6.95
2023-01-02T22:25:55.734Z,6.99
2023-01-02T22:28:58.350Z,7.04
2023-01-02T22:32:03.742Z,7.20
2023-01-02T22:35:07.814Z,7.16
2023-01-02T22:38:10.621Z,7.08
2023-01-02T22:41:13.092Z,6.99
2023-01-02T22:44:24.157Z,7.36
2023-01-02T22:47:31.915Z,7.08
2023-01-02T22:50:43.316Z,7.20
2023-01-02T22:53:45.875Z,7.15
2023-01-02T22:56:48.330Z,7.14
2023-01-02T22:59:50.751Z,7.11
2023-01-02T23:02:53.394Z,7.07
2023-01-02T23:05:56.067Z,7.07
2023-01-02T23:08:58.494Z,6.95
2023-01-02T23:12:00.865Z,6.85
2023-01-02T23:15:03.474Z,6.96
2023-01-02T23:18:24.178Z,6.89
2023-01-02T23:21:27.520Z,6.80
2023-01-02T23:24:35.776Z,6.77
2023-01-02T23:27:38.235Z,6.59
2023-01-02T23:30:41.438Z,6.64
2023-01-02T23:33:43.951Z,6.85
2023-01-02T23:36:46.485Z,6.65
2023-01-02T23:39:49.024Z,6.75
2023-01-02T23:42:51.522Z,6.93
2023-01-02T23:45:54.559Z,6.93
2023-01-02T23:48:58.166Z,6.84
2023-01-02T23:52:00.714Z,6.78
2023-01-02T23:55:03.171Z,6.86
2023-01-02T23:58:05.774Z,6.63
